sensor_id;sensor_type;location;lat;lon;timestamp;temperature;humidity
51938;DHT22;37966;49.454;32.024;2022-10-31T16:27:02;6.50;66.40
51938;DHT22;37966;49.454;32.024;2022-10-31T16:29:39;6.50;67.80
51938;DHT22;37966;49.454;32.024;2022-10-31T16:37:41;6.60;70.40
51938;DHT22;37966;49.454;32.024;2022-10-31T16:40:07;6.70;71.00
51938;DHT22;37966;49.454;32.024;2022-10-31T16:42:33;6.80;71.30
51938;DHT22;37966;49.454;32.024;2022-10-31T16:44:58;6.80;71.60
51938;DHT22;37966;49.454;32.024;2022-10-31T16:47:24;6.90;71.90
51938;DHT22;37966;49.454;32.024;2022-10-31T16:49:50;6.90;71.90
51938;DHT22;37966;49.454;32.024;2022-10-31T16:52:16;6.90;72.10
51938;DHT22;37966;49.454;32.024;2022-10-31T16:54:42;7.00;72.30
51938;DHT22;37966;49.454;32.024;2022-10-31T16:57:10;7.00;72.30
51938;DHT22;37966;49.454;32.024;2022-10-31T16:59:37;7.00;72.50
51938;DHT22;37966;49.454;32.024;2022-10-31T17:02:03;7.00;72.60
51938;DHT22;37966;49.454;32.024;2022-10-31T17:04:29;7.00;72.80
51938;DHT22;37966;49.454;32.024;2022-10-31T17:06:55;7.00;72.70
51938;DHT22;37966;49.454;32.024;2022-10-31T17:09:21;7.10;72.80
51938;DHT22;37966;49.454;32.024;2022-10-31T17:11:52;7.10;72.80
51938;DHT22;37966;49.454;32.024;2022-10-31T17:14:18;7.00;72.90
51938;DHT22;37966;49.454;32.024;2022-10-31T17:18:02;7.00;72.30
51938;DHT22;37966;49.454;32.024;2022-10-31T17:20:28;7.10;72.90
51938;DHT22;37966;49.454;32.024;2022-10-31T17:22:55;7.00;73.00
51938;DHT22;37966;49.454;32.024;2022-10-31T17:25:26;7.10;72.90
51938;DHT22;37966;49.454;32.024;2022-10-31T17:27:52;7.10;73.00
51938;DHT22;37966;49.454;32.024;2022-10-31T17:30:19;7.10;72.90
51938;DHT22;37966;49.454;32.024;2022-10-31T17:32:45;7.00;73.20
51938;DHT22;37966;49.454;32.024;2022-10-31T17:35:11;7.00;73.20
51938;DHT22;37966;49.454;32.024;2022-10-31T17:37:38;7.00;73.10
51938;DHT22;37966;49.454;32.024;2022-10-31T17:40:03;7.00;73.20
51938;DHT22;37966;49.454;32.024;2022-10-31T17:42:29;6.90;73.20
51938;DHT22;37966;49.454;32.024;2022-10-31T17:44:55;6.90;73.20
51938;DHT22;37966;49.454;32.024;2022-10-31T17:47:20;6.90;73.40
51938;DHT22;37966;49.454;32.024;2022-10-31T17:49:46;6.80;73.40
51938;DHT22;37966;49.454;32.024;2022-10-31T17:52:11;6.80;73.50
51938;DHT22;37966;49.454;32.024;2022-10-31T17:54:37;6.80;73.50
51938;DHT22;37966;49.454;32.024;2022-10-31T17:57:02;6.70;73.60
51938;DHT22;37966;49.454;32.024;2022-10-31T17:59:28;6.70;74.30
51938;DHT22;37966;49.454;32.024;2022-10-31T18:01:55;6.70;73.80
51938;DHT22;37966;49.454;32.024;2022-10-31T18:04:20;6.60;73.80
51938;DHT22;37966;49.454;32.024;2022-10-31T18:06:46;6.50;73.90
51938;DHT22;37966;49.454;32.024;2022-10-31T18:09:14;6.50;74.00
51938;DHT22;37966;49.454;32.024;2022-10-31T18:11:40;6.40;74.00
51938;DHT22;37966;49.454;32.024;2022-10-31T18:14:05;6.40;74.20
51938;DHT22;37966;49.454;32.024;2022-10-31T18:16:31;6.40;74.30
51938;DHT22;37966;49.454;32.024;2022-10-31T18:18:57;6.30;74.30
51938;DHT22;37966;49.454;32.024;2022-10-31T18:21:23;6.30;74.50
51938;DHT22;37966;49.454;32.024;2022-10-31T18:23:53;6.20;74.50
51938;DHT22;37966;49.454;32.024;2022-10-31T18:26:19;6.20;74.60
51938;DHT22;37966;49.454;32.024;2022-10-31T18:28:45;6.10;74.60
51938;DHT22;37966;49.454;32.024;2022-10-31T18:31:10;6.10;74.70
51938;DHT22;37966;49.454;32.024;2022-10-31T18:33:36;6.10;74.90
51938;DHT22;37966;49.454;32.024;2022-10-31T18:36:03;6.00;74.90
51938;DHT22;37966;49.454;32.024;2022-10-31T18:38:29;6.00;74.90
51938;DHT22;37966;49.454;32.024;2022-10-31T18:40:54;6.00;75.00
51938;DHT22;37966;49.454;32.024;2022-10-31T18:43:20;5.90;75.00
51938;DHT22;37966;49.454;32.024;2022-10-31T18:45:45;5.80;75.00
51938;DHT22;37966;49.454;32.024;2022-10-31T18:48:12;5.80;75.10
51938;DHT22;37966;49.454;32.024;2022-10-31T18:50:38;5.80;75.10
51938;DHT22;37966;49.454;32.024;2022-10-31T18:53:04;5.70;75.10
51938;DHT22;37966;49.454;32.024;2022-10-31T18:55:29;5.70;75.10
51938;DHT22;37966;49.454;32.024;2022-10-31T18:57:55;5.70;75.20
51938;DHT22;37966;49.454;32.024;2022-10-31T19:00:20;5.70;75.30
51938;DHT22;37966;49.454;32.024;2022-10-31T19:02:46;5.60;75.20
51938;DHT22;37966;49.454;32.024;2022-10-31T19:05:11;5.60;75.30
51938;DHT22;37966;49.454;32.024;2022-10-31T19:07:37;5.60;75.40
51938;DHT22;37966;49.454;32.024;2022-10-31T19:10:02;5.60;75.40
51938;DHT22;37966;49.454;32.024;2022-10-31T19:12:30;5.60;75.40
51938;DHT22;37966;49.454;32.024;2022-10-31T19:14:55;5.50;75.40
51938;DHT22;37966;49.454;32.024;2022-10-31T19:17:22;5.50;75.50
51938;DHT22;37966;49.454;32.024;2022-10-31T19:19:48;5.50;75.50
51938;DHT22;37966;49.454;32.024;2022-10-31T19:22:13;5.40;75.50
51938;DHT22;37966;49.454;32.024;2022-10-31T19:24:39;5.40;75.50
51938;DHT22;37966;49.454;32.024;2022-10-31T19:27:04;5.40;75.50
51938;DHT22;37966;49.454;32.024;2022-10-31T19:29:30;5.30;75.60
51938;DHT22;37966;49.454;32.024;2022-10-31T19:31:55;5.30;75.60
